sensor_id;sensor_type;location;lat;lon;timestamp;P1;durP1;ratioP1;P2;durP2;ratioP2
36359;SDS011;22388;52.432;20.662;2023-04-01T00:00:51;28.17;;;19.55;;
36359;SDS011;22388;52.432;20.662;2023-04-01T00:03:17;26.05;;;19.48;;
36359;SDS011;22388;52.432;20.662;2023-04-01T00:05:44;26.20;;;18.75;;
36359;SDS011;22388;52.432;20.662;2023-04-01T00:08:10;29.58;;;19.55;;
36359;SDS011;22388;52.432;20.662;2023-04-01T00:10:36;24.17;;;17.95;;
36359;SDS011;22388;52.432;20.662;2023-04-01T00:13:02;31.50;;;19.63;;
36359;SDS011;22388;52.432;20.662;2023-04-01T00:15:28;29.38;;;20.60;;
36359;SDS011;22388;52.432;20.662;2023-04-01T00:17:54;29.88;;;20.42;;
36359;SDS011;22388;52.432;20.662;2023-04-01T00:20:20;30.73;;;21.02;;
36359;SDS011;22388;52.432;20.662;2023-04-01T00:22:46;30.50;;;21.02;;
36359;SDS011;22388;52.432;20.662;2023-04-01T00:25:11;36.45;;;22.95;;
36359;SDS011;22388;52.432;20.662;2023-04-01T00:27:37;31.02;;;21.95;;
36359;SDS011;22388;52.432;20.662;2023-04-01T00:30:03;31.60;;;22.13;;
36359;SDS011;22388;52.432;20.662;2023-04-01T00:32:29;30.90;;;22.52;;
36359;SDS011;22388;52.432;20.662;2023-04-01T00:34:56;35.00;;;21.42;;
36359;SDS011;22388;52.432;20.662;2023-04-01T00:37:24;32.25;;;22.65;;
36359;SDS011;22388;52.432;20.662;2023-04-01T00:39:49;35.85;;;24.13;;
36359;SDS011;22388;52.432;20.662;2023-04-01T00:42:15;33.72;;;23.75;;
36359;SDS011;22388;52.432;20.662;2023-04-01T00:44:42;32.83;;;24.48;;
36359;SDS011;22388;52.432;20.662;2023-04-01T00:47:07;34.10;;;23.88;;
36359;SDS011;22388;52.432;20.662;2023-04-01T00:49:38;36.65;;;25.45;;
36359;SDS011;22388;52.432;20.662;2023-04-01T00:52:05;39.90;;;26.38;;
36359;SDS011;22388;52.432;20.662;2023-04-01T00:54:32;41.63;;;27.05;;
36359;SDS011;22388;52.432;20.662;2023-04-01T00:59:37;41.33;;;27.00;;
36359;SDS011;22388;52.432;20.662;2023-04-01T01:02:07;41.17;;;27.50;;
36359;SDS011;22388;52.432;20.662;2023-04-01T01:04:35;40.50;;;26.90;;
36359;SDS011;22388;52.432;20.662;2023-04-01T01:07:23;40.22;;;26.05;;
36359;SDS011;22388;52.432;20.662;2023-04-01T01:10:12;39.17;;;26.30;;
36359;SDS011;22388;52.432;20.662;2023-04-01T01:13:16;42.83;;;26.73;;
36359;SDS011;22388;52.432;20.662;2023-04-01T01:15:53;44.00;;;28.13;;
36359;SDS011;22388;52.432;20.662;2023-04-01T01:18:28;39.00;;;27.23;;
36359;SDS011;22388;52.432;20.662;2023-04-01T01:27:09;40.22;;;28.23;;
36359;SDS011;22388;52.432;20.662;2023-04-01T01:32:33;45.08;;;29.17;;
36359;SDS011;22388;52.432;20.662;2023-04-01T01:35:55;44.97;;;27.30;;
36359;SDS011;22388;52.432;20.662;2023-04-01T01:38:19;43.83;;;26.92;;
36359;SDS011;22388;52.432;20.662;2023-04-01T01:40:50;40.88;;;26.90;;
36359;SDS011;22388;52.432;20.662;2023-04-01T01:43:25;45.38;;;27.58;;
36359;SDS011;22388;52.432;20.662;2023-04-01T01:45:55;39.70;;;26.05;;
36359;SDS011;22388;52.432;20.662;2023-04-01T01:48:23;43.30;;;27.38;;
36359;SDS011;22388;52.432;20.662;2023-04-01T01:50:50;42.53;;;27.05;;
36359;SDS011;22388;52.432;20.662;2023-04-01T01:53:16;39.00;;;27.08;;
36359;SDS011;22388;52.432;20.662;2023-04-01T01:55:45;42.67;;;27.70;;
36359;SDS011;22388;52.432;20.662;2023-04-01T01:58:18;49.25;;;28.30;;
36359;SDS011;22388;52.432;20.662;2023-04-01T02:00:55;39.72;;;26.10;;
36359;SDS011;22388;52.432;20.662;2023-04-01T02:03:24;42.13;;;27.38;;
36359;SDS011;22388;52.432;20.662;2023-04-01T02:05:52;38.25;;;26.15;;
36359;SDS011;22388;52.432;20.662;2023-04-01T02:08:25;39.60;;;27.67;;
36359;SDS011;22388;52.432;20.662;2023-04-01T02:10:56;36.83;;;25.25;;
36359;SDS011;22388;52.432;20.662;2023-04-01T02:16:20;42.95;;;27.58;;
36359;SDS011;22388;52.432;20.662;2023-04-01T02:18:49;38.95;;;27.25;;
36359;SDS011;22388;52.432;20.662;2023-04-01T02:21:17;40.83;;;27.83;;
36359;SDS011;22388;52.432;20.662;2023-04-01T02:23:43;42.78;;;28.35;;
36359;SDS011;22388;52.432;20.662;2023-04-01T02:26:10;46.95;;;28.20;;
36359;SDS011;22388;52.432;20.662;2023-04-01T02:28:37;44.45;;;28.15;;
36359;SDS011;22388;52.432;20.662;2023-04-01T02:31:03;47.17;;;29.27;;
36359;SDS011;22388;52.432;20.662;2023-04-01T02:33:30;45.55;;;27.48;;
36359;SDS011;22388;52.432;20.662;2023-04-01T02:35:56;44.60;;;29.10;;
36359;SDS011;22388;52.432;20.662;2023-04-01T02:38:24;42.15;;;28.05;;
36359;SDS011;22388;52.432;20.662;2023-04-01T02:40:51;43.47;;;28.13;;
36359;SDS011;22388;52.432;20.662;2023-04-01T02:43:22;44.10;;;29.38;;
36359;SDS011;22388;52.432;20.662;2023-04-01T02:45:48;46.38;;;28.30;;
36359;SDS011;22388;52.432;20.662;2023-04-01T02:48:14;42.22;;;27.88;;
36359;SDS011;22388;52.432;20.662;2023-04-01T02:50:39;44.25;;;28.73;;
36359;SDS011;22388;52.432;20.662;2023-04-01T02:53:05;39.83;;;26.88;;
36359;SDS011;22388;52.432;20.662;2023-04-01T02:55:31;39.42;;;27.88;;
36359;SDS011;22388;52.432;20.662;2023-04-01T02:57:58;41.92;;;26.85;;
36359;SDS011;22388;52.432;20.662;2023-04-01T03:00:24;42.75;;;28.77;;
36359;SDS011;22388;52.432;20.662;2023-04-01T03:02:50;43.03;;;28.88;;
36359;SDS011;22388;52.432;20.662;2023-04-01T03:05:16;47.80;;;28.83;;
36359;SDS011;22388;52.432;20.662;2023-04-01T03:07:41;40.30;;;27.15;;
36359;SDS011;22388;52.432;20.662;2023-04-01T03:10:07;44.28;;;28.65;;
36359;SDS011;22388;52.432;20.662;2023-04-01T03:12:33;40.67;;;28.63;;
36359;SDS011;22388;52.432;20.662;2023-04-01T03:14:59;39.55;;;27.73;;
36359;SDS011;22388;52.432;20.662;2023-04-01T03:17:24;43.97;;;27.33;;
36359;SDS011;22388;52.432;20.662;2023-04-01T03:19:50;42.78;;;28.90;;
36359;SDS011;22388;52.432;20.662;2023-04-01T03:22:16;41.90;;;29.23;;
36359;SDS011;22388;52.432;20.662;2023-04-01T03:24:41;44.40;;;28.35;;
36359;SDS011;22388;52.432;20.662;2023-04-01T03:27:07;42.58;;;29.15;;
36359;SDS011;22388;52.432;20.662;2023-04-01T03:29:33;41.13;;;28.05;;
36359;SDS011;22388;52.432;20.662;2023-04-01T03:31:58;42.83;;;28.52;;
36359;SDS011;22388;52.432;20.662;2023-04-01T03:34:24;39.47;;;29.13;;
36359;SDS011;22388;52.432;20.662;2023-04-01T03:36:51;40.72;;;27.65;;
36359;SDS011;22388;52.432;20.662;2023-04-01T03:39:17;43.60;;;27.75;;
36359;SDS011;22388;52.432;20.662;2023-04-01T03:41:45;41.22;;;26.52;;
36359;SDS011;22388;52.432;20.662;2023-04-01T03:44:11;37.92;;;25.48;;
36359;SDS011;22388;52.432;20.662;2023-04-01T03:46:37;37.75;;;25.65;;
36359;SDS011;22388;52.432;20.662;2023-04-01T03:49:05;35.55;;;24.67;;
36359;SDS011;22388;52.432;20.662;2023-04-01T03:51:36;38.70;;;26.35;;
36359;SDS011;22388;52.432;20.662;2023-04-01T03:54:05;38.47;;;24.92;;
36359;SDS011;22388;52.432;20.662;2023-04-01T03:56:32;34.47;;;24.52;;
36359;SDS011;22388;52.432;20.662;2023-04-01T03:58:58;34.45;;;24.23;;
36359;SDS011;22388;52.432;20.662;2023-04-01T04:01:23;33.95;;;24.90;;
36359;SDS011;22388;52.432;20.662;2023-04-01T04:03:49;35.53;;;23.70;;
36359;SDS011;22388;52.432;20.662;2023-04-01T04:06:16;33.22;;;22.20;;
36359;SDS011;22388;52.432;20.662;2023-04-01T04:08:43;32.53;;;22.52;;
36359;SDS011;22388;52.432;20.662;2023-04-01T04:11:09;32.13;;;22.33;;
36359;SDS011;22388;52.432;20.662;2023-04-01T04:13:35;30.42;;;22.75;;
36359;SDS011;22388;52.432;20.662;2023-04-01T04:16:01;31.48;;;23.52;;
36359;SDS011;22388;52.432;20.662;2023-04-01T04:18:28;31.25;;;23.42;;
36359;SDS011;22388;52.432;20.662;2023-04-01T04:20:53;30.45;;;22.33;;
36359;SDS011;22388;52.432;20.662;2023-04-01T04:23:19;34.10;;;25.40;;
36359;SDS011;22388;52.432;20.662;2023-04-01T04:25:58;33.50;;;23.83;;
36359;SDS011;22388;52.432;20.662;2023-04-01T04:28:26;33.83;;;25.35;;
36359;SDS011;22388;52.432;20.662;2023-04-01T04:30:53;35.30;;;25.75;;
36359;SDS011;22388;52.432;20.662;2023-04-01T04:33:19;37.13;;;28.25;;
36359;SDS011;22388;52.432;20.662;2023-04-01T04:35:45;38.20;;;27.35;;
36359;SDS011;22388;52.432;20.662;2023-04-01T04:38:10;40.78;;;27.73;;
36359;SDS011;22388;52.432;20.662;2023-04-01T04:40:37;37.05;;;28.17;;
36359;SDS011;22388;52.432;20.662;2023-04-01T04:43:03;39.63;;;29.27;;
36359;SDS011;22388;52.432;20.662;2023-04-01T04:45:29;36.30;;;28.73;;
36359;SDS011;22388;52.432;20.662;2023-04-01T04:47:55;36.67;;;27.95;;
36359;SDS011;22388;52.432;20.662;2023-04-01T04:50:20;36.47;;;28.05;;
36359;SDS011;22388;52.432;20.662;2023-04-01T04:52:46;38.97;;;28.05;;
36359;SDS011;22388;52.432;20.662;2023-04-01T04:55:12;33.78;;;26.17;;
36359;SDS011;22388;52.432;20.662;2023-04-01T04:57:37;32.28;;;25.73;;
36359;SDS011;22388;52.432;20.662;2023-04-01T05:00:03;36.25;;;25.40;;
36359;SDS011;22388;52.432;20.662;2023-04-01T05:02:29;33.15;;;25.45;;
36359;SDS011;22388;52.432;20.662;2023-04-01T05:04:55;31.38;;;24.67;;
36359;SDS011;22388;52.432;20.662;2023-04-01T05:07:21;34.65;;;25.40;;
36359;SDS011;22388;52.432;20.662;2023-04-01T05:09:46;32.40;;;24.52;;
36359;SDS011;22388;52.432;20.662;2023-04-01T05:12:12;31.33;;;23.92;;
36359;SDS011;22388;52.432;20.662;2023-04-01T05:14:38;31.08;;;23.85;;
36359;SDS011;22388;52.432;20.662;2023-04-01T05:17:07;29.08;;;23.00;;
36359;SDS011;22388;52.432;20.662;2023-04-01T05:19:34;31.17;;;22.83;;
36359;SDS011;22388;52.432;20.662;2023-04-01T05:22:00;29.98;;;23.13;;
36359;SDS011;22388;52.432;20.662;2023-04-01T05:24:25;29.65;;;22.90;;
36359;SDS011;22388;52.432;20.662;2023-04-01T05:26:51;28.05;;;21.48;;
36359;SDS011;22388;52.432;20.662;2023-04-01T05:29:16;26.63;;;20.92;;
36359;SDS011;22388;52.432;20.662;2023-04-01T05:31:42;28.20;;;21.85;;
36359;SDS011;22388;52.432;20.662;2023-04-01T05:34:07;26.77;;;21.10;;
36359;SDS011;22388;52.432;20.662;2023-04-01T05:36:33;26.70;;;20.13;;
36359;SDS011;22388;52.432;20.662;2023-04-01T05:38:59;27.35;;;20.08;;
36359;SDS011;22388;52.432;20.662;2023-04-01T05:41:25;25.48;;;19.80;;
36359;SDS011;22388;52.432;20.662;2023-04-01T05:43:50;24.85;;;19.13;;
36359;SDS011;22388;52.432;20.662;2023-04-01T05:46:16;25.45;;;20.00;;
36359;SDS011;22388;52.432;20.662;2023-04-01T05:48:41;25.80;;;19.13;;
36359;SDS011;22388;52.432;20.662;2023-04-01T05:51:11;24.35;;;18.58;;
36359;SDS011;22388;52.432;20.662;2023-04-01T05:53:38;25.75;;;19.25;;
36359;SDS011;22388;52.432;20.662;2023-04-01T05:56:04;23.80;;;18.77;;
36359;SDS011;22388;52.432;20.662;2023-04-01T05:58:30;24.20;;;18.70;;
36359;SDS011;22388;52.432;20.662;2023-04-01T06:01:05;23.90;;;17.73;;
36359;SDS011;22388;52.432;20.662;2023-04-01T06:03:32;21.08;;;17.23;;
36359;SDS011;22388;52.432;20.662;2023-04-01T06:05:58;24.00;;;17.25;;
36359;SDS011;22388;52.432;20.662;2023-04-01T06:08:24;22.65;;;16.98;;
36359;SDS011;22388;52.432;20.662;2023-04-01T06:13:57;21.63;;;16.52;;
36359;SDS011;22388;52.432;20.662;2023-04-01T06:27:43;21.90;;;15.98;;
36359;SDS011;22388;52.432;20.662;2023-04-01T06:42:02;19.65;;;13.98;;
36359;SDS011;22388;52.432;20.662;2023-04-01T06:47:13;18.25;;;12.90;;
36359;SDS011;22388;52.432;20.662;2023-04-01T06:57:58;14.38;;;11.32;;
36359;SDS011;22388;52.432;20.662;2023-04-01T07:00:32;15.90;;;11.27;;
36359;SDS011;22388;52.432;20.662;2023-04-01T07:05:43;13.63;;;9.68;;
36359;SDS011;22388;52.432;20.662;2023-04-01T07:08:10;11.98;;;8.60;;
36359;SDS011;22388;52.432;20.662;2023-04-01T07:10:50;11.95;;;8.70;;
36359;SDS011;22388;52.432;20.662;2023-04-01T07:13:24;10.40;;;8.48;;
36359;SDS011;22388;52.432;20.662;2023-04-01T07:18:42;10.68;;;7.75;;
36359;SDS011;22388;52.432;20.662;2023-04-01T07:21:10;11.27;;;8.48;;
36359;SDS011;22388;52.432;20.662;2023-04-01T07:23:49;11.57;;;8.13;;
36359;SDS011;22388;52.432;20.662;2023-04-01T07:26:20;9.00;;;7.40;;
36359;SDS011;22388;52.432;20.662;2023-04-01T07:28:47;9.93;;;7.60;;
36359;SDS011;22388;52.432;20.662;2023-04-01T07:31:32;10.23;;;8.15;;
36359;SDS011;22388;52.432;20.662;2023-04-01T07:34:19;11.75;;;7.47;;
36359;SDS011;22388;52.432;20.662;2023-04-01T07:36:59;11.43;;;7.68;;
36359;SDS011;22388;52.432;20.662;2023-04-01T07:50:41;6.95;;;5.25;;
36359;SDS011;22388;52.432;20.662;2023-04-01T07:56:05;8.43;;;5.32;;
36359;SDS011;22388;52.432;20.662;2023-04-01T08:06:52;9.93;;;7.13;;
36359;SDS011;22388;52.432;20.662;2023-04-01T08:14:48;13.68;;;9.23;;
36359;SDS011;22388;52.432;20.662;2023-04-01T08:22:45;12.93;;;10.57;;
36359;SDS011;22388;52.432;20.662;2023-04-01T08:25:25;14.50;;;10.18;;
36359;SDS011;22388;52.432;20.662;2023-04-01T08:27:53;15.77;;;11.55;;
36359;SDS011;22388;52.432;20.662;2023-04-01T08:35:46;17.58;;;13.68;;
36359;SDS011;22388;52.432;20.662;2023-04-01T08:38:34;17.48;;;14.50;;
36359;SDS011;22388;52.432;20.662;2023-04-01T08:43:51;19.48;;;14.90;;
36359;SDS011;22388;52.432;20.662;2023-04-01T08:55:36;23.00;;;16.70;;
36359;SDS011;22388;52.432;20.662;2023-04-01T09:03:58;21.35;;;16.05;;
36359;SDS011;22388;52.432;20.662;2023-04-01T09:17:23;19.23;;;14.80;;
36359;SDS011;22388;52.432;20.662;2023-04-01T09:19:56;18.75;;;15.00;;
36359;SDS011;22388;52.432;20.662;2023-04-01T09:39:18;18.33;;;14.13;;
36359;SDS011;22388;52.432;20.662;2023-04-01T09:42:14;18.05;;;12.77;;
36359;SDS011;22388;52.432;20.662;2023-04-01T10:01:25;16.65;;;11.43;;
36359;SDS011;22388;52.432;20.662;2023-04-01T10:09:49;11.10;;;8.55;;
36359;SDS011;22388;52.432;20.662;2023-04-01T10:12:34;12.57;;;10.32;;
36359;SDS011;22388;52.432;20.662;2023-04-01T10:18:17;11.55;;;8.30;;
36359;SDS011;22388;52.432;20.662;2023-04-01T10:20:55;10.35;;;8.25;;
36359;SDS011;22388;52.432;20.662;2023-04-01T10:23:39;9.95;;;6.45;;
36359;SDS011;22388;52.432;20.662;2023-04-01T10:34:44;9.63;;;5.82;;
36359;SDS011;22388;52.432;20.662;2023-04-01T10:40:08;6.70;;;4.75;;
36359;SDS011;22388;52.432;20.662;2023-04-01T10:57:10;5.72;;;3.67;;
36359;SDS011;22388;52.432;20.662;2023-04-01T11:05:26;4.63;;;3.53;;
36359;SDS011;22388;52.432;20.662;2023-04-01T11:11:14;5.57;;;3.72;;
36359;SDS011;22388;52.432;20.662;2023-04-01T11:24:50;7.80;;;4.63;;
36359;SDS011;22388;52.432;20.662;2023-04-01T11:27:30;9.57;;;5.57;;
36359;SDS011;22388;52.432;20.662;2023-04-01T11:37:54;8.35;;;4.30;;
36359;SDS011;22388;52.432;20.662;2023-04-01T11:43:28;11.13;;;6.55;;
36359;SDS011;22388;52.432;20.662;2023-04-01T11:57:09;8.52;;;5.10;;
36359;SDS011;22388;52.432;20.662;2023-04-01T11:59:44;11.15;;;6.32;;
36359;SDS011;22388;52.432;20.662;2023-04-01T12:03:05;9.32;;;5.60;;
36359;SDS011;22388;52.432;20.662;2023-04-01T12:05:50;9.20;;;5.50;;
36359;SDS011;22388;52.432;20.662;2023-04-01T12:11:06;4.78;;;2.50;;
36359;SDS011;22388;52.432;20.662;2023-04-01T12:30:35;2.80;;;1.83;;
36359;SDS011;22388;52.432;20.662;2023-04-01T12:33:33;4.13;;;3.35;;
36359;SDS011;22388;52.432;20.662;2023-04-01T12:47:45;9.25;;;3.42;;
36359;SDS011;22388;52.432;20.662;2023-04-01T12:53:36;7.47;;;4.53;;
36359;SDS011;22388;52.432;20.662;2023-04-01T12:56:24;8.02;;;4.40;;
36359;SDS011;22388;52.432;20.662;2023-04-01T13:04:51;6.13;;;4.00;;
36359;SDS011;22388;52.432;20.662;2023-04-01T13:18:39;6.03;;;4.10;;
36359;SDS011;22388;52.432;20.662;2023-04-01T13:21:26;8.80;;;4.60;;
36359;SDS011;22388;52.432;20.662;2023-04-01T13:27:14;7.00;;;4.88;;
36359;SDS011;22388;52.432;20.662;2023-04-01T13:43:53;4.63;;;3.20;;
36359;SDS011;22388;52.432;20.662;2023-04-01T14:00:28;5.05;;;3.33;;
36359;SDS011;22388;52.432;20.662;2023-04-01T14:03:36;5.37;;;3.40;;
36359;SDS011;22388;52.432;20.662;2023-04-01T14:06:05;6.20;;;3.30;;
36359;SDS011;22388;52.432;20.662;2023-04-01T14:16:55;4.78;;;3.33;;
36359;SDS011;22388;52.432;20.662;2023-04-01T14:22:25;5.70;;;2.90;;
36359;SDS011;22388;52.432;20.662;2023-04-01T14:32:57;4.38;;;2.60;;
36359;SDS011;22388;52.432;20.662;2023-04-01T14:35:37;4.25;;;2.90;;
36359;SDS011;22388;52.432;20.662;2023-04-01T14:49:22;6.35;;;3.42;;
36359;SDS011;22388;52.432;20.662;2023-04-01T14:51:56;7.53;;;3.50;;
36359;SDS011;22388;52.432;20.662;2023-04-01T14:54:41;8.43;;;4.50;;
36359;SDS011;22388;52.432;20.662;2023-04-01T14:57:10;5.68;;;3.80;;
36359;SDS011;22388;52.432;20.662;2023-04-01T14:59:48;4.85;;;3.30;;
36359;SDS011;22388;52.432;20.662;2023-04-01T15:05:21;5.80;;;3.92;;
36359;SDS011;22388;52.432;20.662;2023-04-01T15:08:10;4.97;;;3.53;;
36359;SDS011;22388;52.432;20.662;2023-04-01T15:21:56;7.35;;;4.38;;
36359;SDS011;22388;52.432;20.662;2023-04-01T15:24:41;7.75;;;4.72;;
36359;SDS011;22388;52.432;20.662;2023-04-01T15:27:42;7.25;;;4.38;;
36359;SDS011;22388;52.432;20.662;2023-04-01T15:30:35;7.07;;;4.68;;
36359;SDS011;22388;52.432;20.662;2023-04-01T15:39:14;7.80;;;4.10;;
36359;SDS011;22388;52.432;20.662;2023-04-01T15:41:44;6.50;;;4.22;;
36359;SDS011;22388;52.432;20.662;2023-04-01T15:47:07;5.50;;;3.70;;
36359;SDS011;22388;52.432;20.662;2023-04-01T15:50:14;6.72;;;3.50;;
36359;SDS011;22388;52.432;20.662;2023-04-01T15:53:03;6.47;;;3.50;;
36359;SDS011;22388;52.432;20.662;2023-04-01T15:56:09;6.25;;;3.40;;
36359;SDS011;22388;52.432;20.662;2023-04-01T16:01:48;4.57;;;2.90;;
36359;SDS011;22388;52.432;20.662;2023-04-01T16:04:23;7.38;;;3.63;;
36359;SDS011;22388;52.432;20.662;2023-04-01T16:10:24;4.55;;;2.90;;
36359;SDS011;22388;52.432;20.662;2023-04-01T16:24:20;5.22;;;2.90;;
36359;SDS011;22388;52.432;20.662;2023-04-01T16:27:12;5.50;;;3.40;;
36359;SDS011;22388;52.432;20.662;2023-04-01T16:29:48;4.97;;;3.15;;
36359;SDS011;22388;52.432;20.662;2023-04-01T16:32:17;4.65;;;3.15;;
36359;SDS011;22388;52.432;20.662;2023-04-01T16:35:23;7.65;;;3.00;;
36359;SDS011;22388;52.432;20.662;2023-04-01T16:37:59;6.32;;;2.78;;
36359;SDS011;22388;52.432;20.662;2023-04-01T16:43:27;9.93;;;5.10;;
36359;SDS011;22388;52.432;20.662;2023-04-01T16:54:18;6.40;;;3.17;;
36359;SDS011;22388;52.432;20.662;2023-04-01T16:59:36;5.18;;;3.60;;
36359;SDS011;22388;52.432;20.662;2023-04-01T17:15:52;9.05;;;5.43;;
36359;SDS011;22388;52.432;20.662;2023-04-01T17:18:31;7.72;;;5.50;;
36359;SDS011;22388;52.432;20.662;2023-04-01T17:37:10;11.05;;;6.70;;
36359;SDS011;22388;52.432;20.662;2023-04-01T17:45:11;11.25;;;7.53;;
36359;SDS011;22388;52.432;20.662;2023-04-01T17:55:32;9.05;;;6.28;;
36359;SDS011;22388;52.432;20.662;2023-04-01T17:58:13;9.65;;;6.80;;
36359;SDS011;22388;52.432;20.662;2023-04-01T18:06:45;11.35;;;7.80;;
36359;SDS011;22388;52.432;20.662;2023-04-01T18:26:05;10.43;;;6.45;;
36359;SDS011;22388;52.432;20.662;2023-04-01T18:28:35;12.15;;;6.93;;
36359;SDS011;22388;52.432;20.662;2023-04-01T18:37:01;9.48;;;6.60;;
36359;SDS011;22388;52.432;20.662;2023-04-01T18:39:41;10.30;;;6.53;;
36359;SDS011;22388;52.432;20.662;2023-04-01T18:50:41;9.02;;;5.93;;
36359;SDS011;22388;52.432;20.662;2023-04-01T19:02:08;10.73;;;6.65;;
36359;SDS011;22388;52.432;20.662;2023-04-01T19:07:44;9.10;;;6.03;;
36359;SDS011;22388;52.432;20.662;2023-04-01T19:10:15;9.80;;;6.50;;
36359;SDS011;22388;52.432;20.662;2023-04-01T19:13:15;10.30;;;7.07;;
36359;SDS011;22388;52.432;20.662;2023-04-01T19:24:42;9.30;;;6.15;;
36359;SDS011;22388;52.432;20.662;2023-04-01T19:27:42;13.85;;;5.70;;
36359;SDS011;22388;52.432;20.662;2023-04-01T19:32:42;8.57;;;5.78;;
36359;SDS011;22388;52.432;20.662;2023-04-01T19:41:02;9.13;;;5.55;;
36359;SDS011;22388;52.432;20.662;2023-04-01T19:44:15;9.52;;;5.72;;
36359;SDS011;22388;52.432;20.662;2023-04-01T19:46:25;8.20;;;5.03;;
36359;SDS011;22388;52.432;20.662;2023-04-01T19:49:28;7.68;;;5.30;;
36359;SDS011;22388;52.432;20.662;2023-04-01T19:55:03;8.25;;;4.57;;
36359;SDS011;22388;52.432;20.662;2023-04-01T19:57:58;9.18;;;4.55;;
36359;SDS011;22388;52.432;20.662;2023-04-01T20:00:53;8.98;;;4.80;;
36359;SDS011;22388;52.432;20.662;2023-04-01T20:13:53;6.10;;;4.00;;
36359;SDS011;22388;52.432;20.662;2023-04-01T20:16:36;9.52;;;4.35;;
36359;SDS011;22388;52.432;20.662;2023-04-01T20:19:33;5.35;;;3.70;;
36359;SDS011;22388;52.432;20.662;2023-04-01T20:22:00;6.22;;;3.95;;
36359;SDS011;22388;52.432;20.662;2023-04-01T20:24:41;6.50;;;4.13;;
36359;SDS011;22388;52.432;20.662;2023-04-01T20:27:31;7.20;;;4.40;;
36359;SDS011;22388;52.432;20.662;2023-04-01T20:41:20;7.00;;;4.15;;
36359;SDS011;22388;52.432;20.662;2023-04-01T20:44:06;5.55;;;3.80;;
36359;SDS011;22388;52.432;20.662;2023-04-01T20:54:40;7.40;;;4.28;;
36359;SDS011;22388;52.432;20.662;2023-04-01T20:57:30;6.78;;;4.20;;
36359;SDS011;22388;52.432;20.662;2023-04-01T21:15:47;9.30;;;5.78;;
36359;SDS011;22388;52.432;20.662;2023-04-01T21:37:07;12.65;;;7.43;;
36359;SDS011;22388;52.432;20.662;2023-04-01T21:39:50;12.15;;;6.93;;
36359;SDS011;22388;52.432;20.662;2023-04-01T21:48:06;12.65;;;6.80;;
36359;SDS011;22388;52.432;20.662;2023-04-01T21:50:41;12.15;;;8.18;;
36359;SDS011;22388;52.432;20.662;2023-04-01T22:06:26;12.85;;;6.97;;
36359;SDS011;22388;52.432;20.662;2023-04-01T22:09:10;11.85;;;7.80;;
36359;SDS011;22388;52.432;20.662;2023-04-01T22:16:57;10.82;;;6.70;;
36359;SDS011;22388;52.432;20.662;2023-04-01T22:19:32;10.85;;;6.47;;
36359;SDS011;22388;52.432;20.662;2023-04-01T22:30:24;9.02;;;5.78;;
36359;SDS011;22388;52.432;20.662;2023-04-01T22:33:35;10.23;;;6.00;;
36359;SDS011;22388;52.432;20.662;2023-04-01T22:38:24;10.07;;;6.50;;
36359;SDS011;22388;52.432;20.662;2023-04-01T22:41:12;12.00;;;6.75;;
36359;SDS011;22388;52.432;20.662;2023-04-01T22:43:45;11.25;;;6.75;;
36359;SDS011;22388;52.432;20.662;2023-04-01T22:49:18;10.93;;;7.00;;
36359;SDS011;22388;52.432;20.662;2023-04-01T22:52:14;11.52;;;6.50;;
36359;SDS011;22388;52.432;20.662;2023-04-01T22:54:50;10.88;;;6.75;;
36359;SDS011;22388;52.432;20.662;2023-04-01T23:03:00;10.95;;;6.75;;
36359;SDS011;22388;52.432;20.662;2023-04-01T23:05:28;12.20;;;7.15;;
36359;SDS011;22388;52.432;20.662;2023-04-01T23:11:00;10.05;;;6.70;;
36359;SDS011;22388;52.432;20.662;2023-04-01T23:13:29;12.48;;;7.55;;
36359;SDS011;22388;52.432;20.662;2023-04-01T23:15:57;11.90;;;7.60;;
36359;SDS011;22388;52.432;20.662;2023-04-01T23:28:59;12.40;;;7.22;;
36359;SDS011;22388;52.432;20.662;2023-04-01T23:31:41;12.32;;;7.57;;
36359;SDS011;22388;52.432;20.662;2023-04-01T23:36:50;10.45;;;7.18;;
36359;SDS011;22388;52.432;20.662;2023-04-01T23:39:20;12.55;;;8.18;;
36359;SDS011;22388;52.432;20.662;2023-04-01T23:41:58;13.32;;;8.25;;
36359;SDS011;22388;52.432;20.662;2023-04-01T23:44:27;12.88;;;7.47;;
36359;SDS011;22388;52.432;20.662;2023-04-01T23:46:53;12.02;;;7.82;;
36359;SDS011;22388;52.432;20.662;2023-04-01T23:49:28;12.90;;;7.43;;
36359;SDS011;22388;52.432;20.662;2023-04-01T23:52:02;10.20;;;6.25;;
36359;SDS011;22388;52.432;20.662;2023-04-01T23:54:41;10.55;;;6.57;;
36359;SDS011;22388;52.432;20.662;2023-04-01T23:57:21;10.73;;;6.60;;
